Terminal Aerodrome Forecast
Issued by NWS Grand Forks, ND

Home | Current Version | Previous Version | Graphics & Text | Print | Product List | Glossary On
Versions: 1 2 3 4 5 6 7 8 9 10 11 12 13 14 15 16 17 18 19 20 21
959
FTUS43 KFGF 212033 AAA
TAFFAR
TAF AMD
KFAR 212033Z 2121/2218 36014KT P6SM BKN030
     FM220000 02009KT P6SM SCT100
     FM220200 03007KT P6SM FEW250
     FM220800 11006KT P6SM SCT250
     FM221400 15012G20KT P6SM BKN110=

USA.gov is the U.S. government's official web portal to all federal, state and local government web resources and services.